Albion, ID

5:37 PM MST on December 21, 2014 (GMT -0700)
Land Creek | Change Station
CLOSE
Current Station
Personal Weather Station
Location: Burley, ID
Elevation: 4386 ft
Nearby Weather Stations

Elev 4386 ft 42.34 °N, 113.81 °W | Updated 52 seconds ago

Mostly Cloudy
Mostly Cloudy
39.6 °F
Feels Like 33 °F
N
10.5
Wind Variable Wind from West
Gusts 14.0 mph

Today
High -- | Low -- °F
--% Chance of Precip.
Yesterday
High -- | Low -- °F
Precip. -- in
8:00 AM 5:04 PM
Waning Crescent, 0% visible
Pressure 29.93 in
Visibility 10.0 miles
Clouds Overcast 4800 ft
Windchill 33 °F
Dew Point 37 °F
Humidity 92%
Rainfall 0.43 in
Snow Depth Not available.
UV 0 out of 12
Pollen .10 out of 12
Air Quality Not available.
Flu Activity Not available.
METAR KBYI 212353Z AUTO 27018G24KT 10SM -RA OVC048 06/03 A2993 RMK AO2 PK WND 28031/2323 RAB03 SLP135 P0000 60004 T00560033 10100 20056 53020

More Conditions Fewer Conditions

Pressure 29.93 in
Visibility 10.0 miles
Clouds Overcast 4800 ft
Windchill 33 °F
Dew Point 37 °F
Humidity 92%
Rainfall 0.43 in
Snow Depth Not available.
UV 0 out of 12
Pollen .10 out of 12
Air Quality Not available.
Flu Activity Not available.
METAR KBYI 212353Z AUTO 27018G24KT 10SM -RA OVC048 06/03 A2993 RMK AO2 PK WND 28031/2323 RAB03 SLP135 P0000 60004 T00560033 10100 20056 53020

More Conditions Fewer Conditions

10-Day Weather Forecast

Almanac

Astronomy

Dec. 21, 2014 Rise Set
Actual Time
Civil Twilight
Nautical Twilight
Astronomical Twilight
Moon
Length of Visible Light
Length of Day
Tomorrow will be .
, % of the Moon is Illuminated

Today's Extremes

State Highs State Lows

Community

WunderPhotos

Upload Photos

1,779,510 photos uploaded!

WunderBlogs® & News

Nearby

Air Quality

  Air Quality AQ Index Pollutant
Not available.

Snow Depth

Station Depth Elevation

Earthquake Activity

City Distance Mag. Time & Date
Minimum magnitude displayed is 2.5.

Coastal Water Temperatures

Place Temperature

Nearby Weather Stations